sensor_id;sensor_type;location;lat;lon;timestamp;P1;durP1;ratioP1;P2;durP2;ratioP2
5730;SDS011;2890;51.950;7.668;2023-02-15T00:00:04;19.67;;;14.03;;
5730;SDS011;2890;51.950;7.668;2023-02-15T00:02:33;20.07;;;15.33;;
5730;SDS011;2890;51.950;7.668;2023-02-15T00:04:59;22.07;;;15.80;;
5730;SDS011;2890;51.950;7.668;2023-02-15T00:07:26;19.67;;;15.23;;
5730;SDS011;2890;51.950;7.668;2023-02-15T00:09:52;20.13;;;15.00;;
5730;SDS011;2890;51.950;7.668;2023-02-15T00:12:18;20.23;;;14.73;;
5730;SDS011;2890;51.950;7.668;2023-02-15T00:14:46;20.77;;;15.13;;
5730;SDS011;2890;51.950;7.668;2023-02-15T00:17:13;20.73;;;14.70;;
5730;SDS011;2890;51.950;7.668;2023-02-15T00:19:39;19.97;;;14.90;;
5730;SDS011;2890;51.950;7.668;2023-02-15T00:22:06;20.63;;;14.60;;
5730;SDS011;2890;51.950;7.668;2023-02-15T00:24:32;22.77;;;14.87;;
5730;SDS011;2890;51.950;7.668;2023-02-15T00:26:59;22.17;;;15.80;;
5730;SDS011;2890;51.950;7.668;2023-02-15T00:29:25;19.47;;;14.30;;
5730;SDS011;2890;51.950;7.668;2023-02-15T00:31:54;20.23;;;15.40;;
5730;SDS011;2890;51.950;7.668;2023-02-15T00:34:21;20.97;;;15.07;;
5730;SDS011;2890;51.950;7.668;2023-02-15T00:36:49;21.33;;;16.00;;
5730;SDS011;2890;51.950;7.668;2023-02-15T00:39:16;26.23;;;18.23;;
5730;SDS011;2890;51.950;7.668;2023-02-15T00:41:43;23.37;;;16.90;;
5730;SDS011;2890;51.950;7.668;2023-02-15T00:44:10;20.83;;;15.70;;
5730;SDS011;2890;51.950;7.668;2023-02-15T00:46:36;26.13;;;17.20;;
5730;SDS011;2890;51.950;7.668;2023-02-15T00:49:04;21.70;;;17.10;;
5730;SDS011;2890;51.950;7.668;2023-02-15T00:51:31;21.87;;;15.77;;
5730;SDS011;2890;51.950;7.668;2023-02-15T00:53:58;24.40;;;15.07;;
5730;SDS011;2890;51.950;7.668;2023-02-15T00:56:24;24.93;;;15.07;;
5730;SDS011;2890;51.950;7.668;2023-02-15T00:58:53;26.43;;;14.53;;
5730;SDS011;2890;51.950;7.668;2023-02-15T01:01:19;21.73;;;15.60;;
5730;SDS011;2890;51.950;7.668;2023-02-15T01:03:46;21.87;;;14.87;;
5730;SDS011;2890;51.950;7.668;2023-02-15T01:06:15;21.67;;;15.67;;
5730;SDS011;2890;51.950;7.668;2023-02-15T01:08:42;21.00;;;14.77;;
5730;SDS011;2890;51.950;7.668;2023-02-15T01:11:09;22.17;;;15.40;;
5730;SDS011;2890;51.950;7.668;2023-02-15T01:13:36;19.47;;;14.43;;
5730;SDS011;2890;51.950;7.668;2023-02-15T01:16:03;23.33;;;14.40;;
5730;SDS011;2890;51.950;7.668;2023-02-15T01:18:30;21.43;;;15.20;;
5730;SDS011;2890;51.950;7.668;2023-02-15T01:20:57;21.27;;;15.43;;
5730;SDS011;2890;51.950;7.668;2023-02-15T01:23:25;23.57;;;15.73;;
5730;SDS011;2890;51.950;7.668;2023-02-15T01:25:51;25.63;;;17.97;;
5730;SDS011;2890;51.950;7.668;2023-02-15T01:28:17;28.27;;;18.10;;
5730;SDS011;2890;51.950;7.668;2023-02-15T01:30:44;19.80;;;14.50;;
5730;SDS011;2890;51.950;7.668;2023-02-15T01:33:10;23.23;;;15.90;;
5730;SDS011;2890;51.950;7.668;2023-02-15T01:35:42;21.13;;;15.07;;
5730;SDS011;2890;51.950;7.668;2023-02-15T01:38:09;23.57;;;16.17;;
5730;SDS011;2890;51.950;7.668;2023-02-15T01:40:37;24.27;;;16.77;;
5730;SDS011;2890;51.950;7.668;2023-02-15T01:43:07;29.90;;;19.63;;
5730;SDS011;2890;51.950;7.668;2023-02-15T01:45:35;29.60;;;21.40;;
5730;SDS011;2890;51.950;7.668;2023-02-15T01:48:03;27.87;;;18.77;;
5730;SDS011;2890;51.950;7.668;2023-02-15T01:50:32;28.30;;;17.50;;
5730;SDS011;2890;51.950;7.668;2023-02-15T01:53:01;27.60;;;18.70;;
5730;SDS011;2890;51.950;7.668;2023-02-15T01:55:32;23.13;;;17.47;;
5730;SDS011;2890;51.950;7.668;2023-02-15T01:58:02;28.70;;;18.17;;
5730;SDS011;2890;51.950;7.668;2023-02-15T02:00:29;24.67;;;16.00;;
5730;SDS011;2890;51.950;7.668;2023-02-15T02:02:56;21.83;;;15.90;;
5730;SDS011;2890;51.950;7.668;2023-02-15T02:05:23;21.27;;;15.23;;
5730;SDS011;2890;51.950;7.668;2023-02-15T02:07:50;22.83;;;15.73;;
5730;SDS011;2890;51.950;7.668;2023-02-15T02:10:18;24.20;;;15.57;;
5730;SDS011;2890;51.950;7.668;2023-02-15T02:12:48;25.10;;;16.13;;
5730;SDS011;2890;51.950;7.668;2023-02-15T02:15:18;31.77;;;17.83;;
5730;SDS011;2890;51.950;7.668;2023-02-15T02:17:49;26.27;;;17.97;;
5730;SDS011;2890;51.950;7.668;2023-02-15T02:20:30;26.60;;;18.50;;
5730;SDS011;2890;51.950;7.668;2023-02-15T02:23:15;29.70;;;18.63;;
5730;SDS011;2890;51.950;7.668;2023-02-15T02:25:50;25.13;;;16.97;;
5730;SDS011;2890;51.950;7.668;2023-02-15T02:28:33;25.03;;;17.70;;
5730;SDS011;2890;51.950;7.668;2023-02-15T02:31:20;30.23;;;18.93;;
5730;SDS011;2890;51.950;7.668;2023-02-15T02:33:58;25.67;;;18.77;;
5730;SDS011;2890;51.950;7.668;2023-02-15T02:36:29;25.80;;;17.67;;
5730;SDS011;2890;51.950;7.668;2023-02-15T02:39:09;29.67;;;20.00;;
5730;SDS011;2890;51.950;7.668;2023-02-15T02:41:42;28.20;;;18.87;;
5730;SDS011;2890;51.950;7.668;2023-02-15T02:44:13;29.43;;;19.30;;
5730;SDS011;2890;51.950;7.668;2023-02-15T02:46:48;26.83;;;18.17;;
5730;SDS011;2890;51.950;7.668;2023-02-15T02:49:20;33.40;;;18.80;;
5730;SDS011;2890;51.950;7.668;2023-02-15T02:51:57;25.00;;;17.60;;
5730;SDS011;2890;51.950;7.668;2023-02-15T02:54:24;26.40;;;18.10;;
5730;SDS011;2890;51.950;7.668;2023-02-15T02:56:51;27.73;;;18.00;;
5730;SDS011;2890;51.950;7.668;2023-02-15T02:59:18;26.73;;;18.47;;
5730;SDS011;2890;51.950;7.668;2023-02-15T03:01:47;27.93;;;18.70;;
5730;SDS011;2890;51.950;7.668;2023-02-15T03:04:17;26.43;;;18.10;;
5730;SDS011;2890;51.950;7.668;2023-02-15T03:06:46;28.73;;;20.43;;
5730;SDS011;2890;51.950;7.668;2023-02-15T03:09:17;30.20;;;19.77;;
5730;SDS011;2890;51.950;7.668;2023-02-15T03:11:47;26.40;;;17.73;;
5730;SDS011;2890;51.950;7.668;2023-02-15T03:14:14;30.00;;;18.60;;
5730;SDS011;2890;51.950;7.668;2023-02-15T03:16:42;28.20;;;17.80;;
5730;SDS011;2890;51.950;7.668;2023-02-15T03:19:11;25.27;;;17.37;;
5730;SDS011;2890;51.950;7.668;2023-02-15T03:21:42;24.10;;;17.57;;
5730;SDS011;2890;51.950;7.668;2023-02-15T03:24:14;26.07;;;16.87;;
5730;SDS011;2890;51.950;7.668;2023-02-15T03:26:43;25.17;;;16.83;;
5730;SDS011;2890;51.950;7.668;2023-02-15T03:29:11;22.13;;;16.20;;
5730;SDS011;2890;51.950;7.668;2023-02-15T03:31:39;22.50;;;16.17;;
5730;SDS011;2890;51.950;7.668;2023-02-15T03:34:08;23.07;;;15.93;;
5730;SDS011;2890;51.950;7.668;2023-02-15T03:36:39;21.77;;;15.47;;
5730;SDS011;2890;51.950;7.668;2023-02-15T03:39:11;25.87;;;16.30;;
5730;SDS011;2890;51.950;7.668;2023-02-15T03:41:45;25.20;;;16.10;;
5730;SDS011;2890;51.950;7.668;2023-02-15T03:44:13;24.63;;;17.40;;
5730;SDS011;2890;51.950;7.668;2023-02-15T03:46:45;24.67;;;16.67;;
5730;SDS011;2890;51.950;7.668;2023-02-15T03:49:16;25.33;;;16.10;;
5730;SDS011;2890;51.950;7.668;2023-02-15T03:51:48;23.90;;;16.37;;
5730;SDS011;2890;51.950;7.668;2023-02-15T03:54:16;26.43;;;17.30;;
5730;SDS011;2890;51.950;7.668;2023-02-15T03:57:03;24.03;;;16.30;;
5730;SDS011;2890;51.950;7.668;2023-02-15T03:59:48;24.20;;;16.40;;
5730;SDS011;2890;51.950;7.668;2023-02-15T04:02:33;25.43;;;15.53;;
5730;SDS011;2890;51.950;7.668;2023-02-15T04:05:04;21.07;;;14.47;;
5730;SDS011;2890;51.950;7.668;2023-02-15T04:07:32;19.87;;;14.60;;
5730;SDS011;2890;51.950;7.668;2023-02-15T04:09:59;21.87;;;15.23;;
5730;SDS011;2890;51.950;7.668;2023-02-15T04:12:43;24.97;;;15.57;;
5730;SDS011;2890;51.950;7.668;2023-02-15T04:15:11;23.40;;;15.77;;
5730;SDS011;2890;51.950;7.668;2023-02-15T04:17:55;21.57;;;15.70;;
5730;SDS011;2890;51.950;7.668;2023-02-15T04:20:22;24.93;;;14.47;;
5730;SDS011;2890;51.950;7.668;2023-02-15T04:23:07;23.90;;;16.60;;
5730;SDS011;2890;51.950;7.668;2023-02-15T04:25:52;23.07;;;15.53;;
5730;SDS011;2890;51.950;7.668;2023-02-15T04:28:18;24.33;;;14.93;;
5730;SDS011;2890;51.950;7.668;2023-02-15T04:30:44;21.27;;;14.90;;
5730;SDS011;2890;51.950;7.668;2023-02-15T04:33:12;18.63;;;14.57;;
5730;SDS011;2890;51.950;7.668;2023-02-15T04:35:38;20.37;;;14.17;;
5730;SDS011;2890;51.950;7.668;2023-02-15T04:38:05;22.90;;;14.90;;
5730;SDS011;2890;51.950;7.668;2023-02-15T04:40:33;25.73;;;16.93;;
5730;SDS011;2890;51.950;7.668;2023-02-15T04:42:59;23.83;;;16.50;;
5730;SDS011;2890;51.950;7.668;2023-02-15T04:45:25;23.73;;;15.77;;
5730;SDS011;2890;51.950;7.668;2023-02-15T04:47:53;21.77;;;15.17;;
5730;SDS011;2890;51.950;7.668;2023-02-15T04:50:19;21.70;;;15.13;;
5730;SDS011;2890;51.950;7.668;2023-02-15T04:52:46;22.37;;;15.67;;
5730;SDS011;2890;51.950;7.668;2023-02-15T04:55:12;26.07;;;15.37;;
5730;SDS011;2890;51.950;7.668;2023-02-15T04:57:41;26.97;;;14.67;;
5730;SDS011;2890;51.950;7.668;2023-02-15T05:00:07;23.63;;;15.77;;
5730;SDS011;2890;51.950;7.668;2023-02-15T05:02:34;25.80;;;15.20;;
5730;SDS011;2890;51.950;7.668;2023-02-15T05:05:01;21.77;;;14.47;;
5730;SDS011;2890;51.950;7.668;2023-02-15T05:07:28;22.43;;;14.40;;
5730;SDS011;2890;51.950;7.668;2023-02-15T05:09:54;23.00;;;13.90;;
5730;SDS011;2890;51.950;7.668;2023-02-15T05:12:21;23.93;;;14.77;;
5730;SDS011;2890;51.950;7.668;2023-02-15T05:14:48;22.17;;;14.57;;
5730;SDS011;2890;51.950;7.668;2023-02-15T05:17:15;24.63;;;14.60;;
5730;SDS011;2890;51.950;7.668;2023-02-15T05:19:41;23.53;;;14.57;;
5730;SDS011;2890;51.950;7.668;2023-02-15T05:22:07;25.07;;;14.50;;
5730;SDS011;2890;51.950;7.668;2023-02-15T05:24:34;20.83;;;15.57;;
5730;SDS011;2890;51.950;7.668;2023-02-15T05:27:18;19.83;;;13.00;;
5730;SDS011;2890;51.950;7.668;2023-02-15T05:30:04;18.73;;;13.37;;
5730;SDS011;2890;51.950;7.668;2023-02-15T05:32:36;22.80;;;14.07;;
5730;SDS011;2890;51.950;7.668;2023-02-15T05:35:03;18.90;;;13.63;;
5730;SDS011;2890;51.950;7.668;2023-02-15T05:37:29;18.20;;;12.97;;
5730;SDS011;2890;51.950;7.668;2023-02-15T05:39:56;19.63;;;13.70;;
5730;SDS011;2890;51.950;7.668;2023-02-15T05:42:22;20.27;;;13.03;;
5730;SDS011;2890;51.950;7.668;2023-02-15T05:44:49;24.17;;;14.23;;
5730;SDS011;2890;51.950;7.668;2023-02-15T05:47:16;19.40;;;13.83;;
5730;SDS011;2890;51.950;7.668;2023-02-15T05:49:43;20.67;;;13.03;;
5730;SDS011;2890;51.950;7.668;2023-02-15T05:52:09;19.00;;;12.87;;
5730;SDS011;2890;51.950;7.668;2023-02-15T05:54:37;20.53;;;13.77;;
5730;SDS011;2890;51.950;7.668;2023-02-15T05:57:03;19.53;;;13.70;;
5730;SDS011;2890;51.950;7.668;2023-02-15T05:59:29;20.47;;;13.50;;
5730;SDS011;2890;51.950;7.668;2023-02-15T06:01:56;17.53;;;13.20;;
5730;SDS011;2890;51.950;7.668;2023-02-15T06:04:24;24.83;;;13.27;;
5730;SDS011;2890;51.950;7.668;2023-02-15T06:06:50;18.73;;;13.20;;
5730;SDS011;2890;51.950;7.668;2023-02-15T06:09:16;20.60;;;13.47;;
5730;SDS011;2890;51.950;7.668;2023-02-15T06:11:44;18.00;;;12.67;;
5730;SDS011;2890;51.950;7.668;2023-02-15T06:14:11;20.40;;;13.57;;
5730;SDS011;2890;51.950;7.668;2023-02-15T06:16:37;19.17;;;12.70;;
5730;SDS011;2890;51.950;7.668;2023-02-15T06:19:04;20.60;;;13.70;;
5730;SDS011;2890;51.950;7.668;2023-02-15T06:21:31;20.53;;;14.17;;
5730;SDS011;2890;51.950;7.668;2023-02-15T06:23:58;21.63;;;13.80;;
5730;SDS011;2890;51.950;7.668;2023-02-15T06:26:24;23.33;;;14.67;;
5730;SDS011;2890;51.950;7.668;2023-02-15T06:28:51;19.70;;;13.83;;
5730;SDS011;2890;51.950;7.668;2023-02-15T06:31:17;21.83;;;13.63;;
5730;SDS011;2890;51.950;7.668;2023-02-15T06:33:43;19.37;;;13.27;;
5730;SDS011;2890;51.950;7.668;2023-02-15T06:36:10;24.07;;;14.30;;
5730;SDS011;2890;51.950;7.668;2023-02-15T06:38:38;21.33;;;13.90;;
5730;SDS011;2890;51.950;7.668;2023-02-15T06:41:05;23.77;;;14.30;;
5730;SDS011;2890;51.950;7.668;2023-02-15T06:43:32;20.93;;;13.80;;
5730;SDS011;2890;51.950;7.668;2023-02-15T06:45:59;19.90;;;14.33;;
5730;SDS011;2890;51.950;7.668;2023-02-15T06:48:25;20.03;;;13.70;;
5730;SDS011;2890;51.950;7.668;2023-02-15T06:50:52;21.27;;;14.23;;
5730;SDS011;2890;51.950;7.668;2023-02-15T06:53:18;24.17;;;15.10;;
5730;SDS011;2890;51.950;7.668;2023-02-15T06:55:46;20.57;;;13.73;;
5730;SDS011;2890;51.950;7.668;2023-02-15T06:58:13;23.27;;;13.27;;
5730;SDS011;2890;51.950;7.668;2023-02-15T07:00:39;22.10;;;14.97;;
5730;SDS011;2890;51.950;7.668;2023-02-15T07:03:05;22.37;;;14.77;;
5730;SDS011;2890;51.950;7.668;2023-02-15T07:05:32;21.53;;;15.33;;
5730;SDS011;2890;51.950;7.668;2023-02-15T07:07:59;20.47;;;13.03;;
5730;SDS011;2890;51.950;7.668;2023-02-15T07:10:26;19.30;;;12.80;;
5730;SDS011;2890;51.950;7.668;2023-02-15T07:12:54;20.63;;;13.17;;
5730;SDS011;2890;51.950;7.668;2023-02-15T07:15:20;21.57;;;14.03;;
5730;SDS011;2890;51.950;7.668;2023-02-15T07:17:47;18.30;;;13.67;;
5730;SDS011;2890;51.950;7.668;2023-02-15T07:20:15;20.47;;;13.87;;
5730;SDS011;2890;51.950;7.668;2023-02-15T07:22:42;20.93;;;13.83;;
5730;SDS011;2890;51.950;7.668;2023-02-15T07:25:09;20.80;;;13.90;;
5730;SDS011;2890;51.950;7.668;2023-02-15T07:27:37;20.63;;;14.07;;
5730;SDS011;2890;51.950;7.668;2023-02-15T07:30:07;21.17;;;13.60;;
5730;SDS011;2890;51.950;7.668;2023-02-15T07:32:35;21.20;;;13.97;;
5730;SDS011;2890;51.950;7.668;2023-02-15T07:35:01;21.27;;;14.40;;
5730;SDS011;2890;51.950;7.668;2023-02-15T07:37:28;23.43;;;14.57;;
5730;SDS011;2890;51.950;7.668;2023-02-15T07:39:54;19.43;;;12.40;;
5730;SDS011;2890;51.950;7.668;2023-02-15T07:42:20;22.27;;;13.67;;
5730;SDS011;2890;51.950;7.668;2023-02-15T07:44:47;22.37;;;13.10;;
5730;SDS011;2890;51.950;7.668;2023-02-15T07:47:15;20.67;;;13.93;;
5730;SDS011;2890;51.950;7.668;2023-02-15T07:49:41;18.60;;;13.23;;
5730;SDS011;2890;51.950;7.668;2023-02-15T07:52:08;16.07;;;11.77;;
5730;SDS011;2890;51.950;7.668;2023-02-15T07:54:34;15.63;;;12.37;;
5730;SDS011;2890;51.950;7.668;2023-02-15T07:57:00;19.83;;;11.83;;
5730;SDS011;2890;51.950;7.668;2023-02-15T07:59:27;15.17;;;11.63;;
5730;SDS011;2890;51.950;7.668;2023-02-15T08:01:53;16.13;;;12.60;;
5730;SDS011;2890;51.950;7.668;2023-02-15T08:04:22;14.97;;;11.47;;
5730;SDS011;2890;51.950;7.668;2023-02-15T08:06:51;17.10;;;12.10;;
5730;SDS011;2890;51.950;7.668;2023-02-15T08:09:18;18.37;;;11.70;;
5730;SDS011;2890;51.950;7.668;2023-02-15T08:11:45;15.83;;;11.97;;
5730;SDS011;2890;51.950;7.668;2023-02-15T08:14:13;16.57;;;10.93;;
5730;SDS011;2890;51.950;7.668;2023-02-15T08:16:41;16.60;;;11.13;;
5730;SDS011;2890;51.950;7.668;2023-02-15T08:19:09;14.73;;;11.30;;
5730;SDS011;2890;51.950;7.668;2023-02-15T08:21:38;14.80;;;11.53;;
5730;SDS011;2890;51.950;7.668;2023-02-15T08:24:06;14.33;;;11.17;;
5730;SDS011;2890;51.950;7.668;2023-02-15T08:26:37;15.37;;;11.23;;
5730;SDS011;2890;51.950;7.668;2023-02-15T08:29:05;15.63;;;11.10;;
5730;SDS011;2890;51.950;7.668;2023-02-15T08:31:32;14.77;;;10.83;;
5730;SDS011;2890;51.950;7.668;2023-02-15T08:33:59;16.27;;;11.10;;
5730;SDS011;2890;51.950;7.668;2023-02-15T08:36:27;13.77;;;10.50;;
5730;SDS011;2890;51.950;7.668;2023-02-15T08:38:56;17.10;;;11.68;;
5730;SDS011;2890;51.950;7.668;2023-02-15T08:41:25;12.57;;;10.50;;
5730;SDS011;2890;51.950;7.668;2023-02-15T08:43:57;14.75;;;10.75;;
5730;SDS011;2890;51.950;7.668;2023-02-15T08:46:27;17.70;;;11.38;;
5730;SDS011;2890;51.950;7.668;2023-02-15T08:48:57;16.52;;;11.25;;
5730;SDS011;2890;51.950;7.668;2023-02-15T08:51:24;14.32;;;11.57;;
5730;SDS011;2890;51.950;7.668;2023-02-15T08:53:52;17.08;;;11.75;;
5730;SDS011;2890;51.950;7.668;2023-02-15T08:56:21;15.63;;;11.73;;
5730;SDS011;2890;51.950;7.668;2023-02-15T08:58:48;15.02;;;12.02;;
5730;SDS011;2890;51.950;7.668;2023-02-15T09:01:16;17.88;;;12.80;;
5730;SDS011;2890;51.950;7.668;2023-02-15T09:03:45;15.88;;;12.55;;
5730;SDS011;2890;51.950;7.668;2023-02-15T09:06:11;14.20;;;11.63;;
5730;SDS011;2890;51.950;7.668;2023-02-15T09:08:38;15.68;;;11.88;;
5730;SDS011;2890;51.950;7.668;2023-02-15T09:11:06;14.60;;;11.85;;
5730;SDS011;2890;51.950;7.668;2023-02-15T09:13:35;15.73;;;11.35;;
5730;SDS011;2890;51.950;7.668;2023-02-15T09:16:04;15.05;;;11.60;;
5730;SDS011;2890;51.950;7.668;2023-02-15T09:18:32;18.23;;;12.23;;
5730;SDS011;2890;51.950;7.668;2023-02-15T09:21:03;14.07;;;12.05;;
5730;SDS011;2890;51.950;7.668;2023-02-15T09:23:31;18.27;;;13.02;;
5730;SDS011;2890;51.950;7.668;2023-02-15T09:26:01;14.13;;;11.93;;
5730;SDS011;2890;51.950;7.668;2023-02-15T09:28:28;15.27;;;11.98;;
5730;SDS011;2890;51.950;7.668;2023-02-15T09:30:57;18.75;;;12.88;;
5730;SDS011;2890;51.950;7.668;2023-02-15T09:33:23;15.25;;;11.63;;
5730;SDS011;2890;51.950;7.668;2023-02-15T09:35:50;14.77;;;12.45;;
5730;SDS011;2890;51.950;7.668;2023-02-15T09:38:17;14.82;;;12.38;;
5730;SDS011;2890;51.950;7.668;2023-02-15T09:40:46;16.63;;;14.15;;
5730;SDS011;2890;51.950;7.668;2023-02-15T09:43:22;14.82;;;13.25;;
5730;SDS011;2890;51.950;7.668;2023-02-15T09:46:01;15.70;;;13.15;;
5730;SDS011;2890;51.950;7.668;2023-02-15T09:48:40;15.00;;;12.88;;
5730;SDS011;2890;51.950;7.668;2023-02-15T09:51:16;16.70;;;13.15;;
5730;SDS011;2890;51.950;7.668;2023-02-15T09:54:01;18.65;;;14.30;;
5730;SDS011;2890;51.950;7.668;2023-02-15T09:56:36;13.45;;;12.02;;
5730;SDS011;2890;51.950;7.668;2023-02-15T09:59:06;17.67;;;14.48;;
5730;SDS011;2890;51.950;7.668;2023-02-15T10:01:41;16.98;;;13.80;;
5730;SDS011;2890;51.950;7.668;2023-02-15T10:04:18;16.63;;;13.90;;
5730;SDS011;2890;51.950;7.668;2023-02-15T10:06:53;16.83;;;14.43;;
5730;SDS011;2890;51.950;7.668;2023-02-15T10:09:38;16.27;;;13.65;;
5730;SDS011;2890;51.950;7.668;2023-02-15T10:12:14;16.77;;;14.85;;
5730;SDS011;2890;51.950;7.668;2023-02-15T10:17:51;19.23;;;15.68;;
5730;SDS011;2890;51.950;7.668;2023-02-15T10:20:24;18.98;;;15.50;;
5730;SDS011;2890;51.950;7.668;2023-02-15T10:22:59;20.35;;;16.02;;
5730;SDS011;2890;51.950;7.668;2023-02-15T10:25:36;19.35;;;15.80;;
5730;SDS011;2890;51.950;7.668;2023-02-15T10:28:11;22.30;;;16.27;;
5730;SDS011;2890;51.950;7.668;2023-02-15T10:30:43;17.58;;;15.18;;
5730;SDS011;2890;51.950;7.668;2023-02-15T10:33:16;21.60;;;16.58;;
5730;SDS011;2890;51.950;7.668;2023-02-15T10:35:50;21.20;;;15.77;;
5730;SDS011;2890;51.950;7.668;2023-02-15T10:38:20;22.50;;;17.20;;
5730;SDS011;2890;51.950;7.668;2023-02-15T10:40:55;22.35;;;16.48;;
5730;SDS011;2890;51.950;7.668;2023-02-15T10:43:36;20.92;;;15.73;;
5730;SDS011;2890;51.950;7.668;2023-02-15T10:46:12;22.38;;;17.15;;
5730;SDS011;2890;51.950;7.668;2023-02-15T10:51:42;21.52;;;16.63;;
5730;SDS011;2890;51.950;7.668;2023-02-15T10:54:21;20.00;;;16.67;;
5730;SDS011;2890;51.950;7.668;2023-02-15T10:56:56;24.17;;;17.30;;
5730;SDS011;2890;51.950;7.668;2023-02-15T10:59:33;24.48;;;17.75;;
5730;SDS011;2890;51.950;7.668;2023-02-15T11:02:10;22.92;;;17.45;;
5730;SDS011;2890;51.950;7.668;2023-02-15T11:04:45;21.35;;;16.45;;
5730;SDS011;2890;51.950;7.668;2023-02-15T11:07:20;24.63;;;16.77;;
5730;SDS011;2890;51.950;7.668;2023-02-15T11:09:50;21.52;;;16.75;;
5730;SDS011;2890;51.950;7.668;2023-02-15T11:12:20;24.65;;;16.83;;
5730;SDS011;2890;51.950;7.668;2023-02-15T11:14:49;22.63;;;16.00;;
5730;SDS011;2890;51.950;7.668;2023-02-15T11:17:20;22.38;;;16.23;;
5730;SDS011;2890;51.950;7.668;2023-02-15T11:19:51;23.77;;;17.10;;
5730;SDS011;2890;51.950;7.668;2023-02-15T11:22:23;22.60;;;17.10;;
5730;SDS011;2890;51.950;7.668;2023-02-15T11:24:49;24.25;;;16.95;;
5730;SDS011;2890;51.950;7.668;2023-02-15T11:27:19;22.85;;;17.23;;
5730;SDS011;2890;51.950;7.668;2023-02-15T11:29:50;21.70;;;17.00;;
5730;SDS011;2890;51.950;7.668;2023-02-15T11:32:22;25.17;;;18.30;;
5730;SDS011;2890;51.950;7.668;2023-02-15T11:34:50;24.23;;;17.33;;
5730;SDS011;2890;51.950;7.668;2023-02-15T11:37:20;22.05;;;16.52;;
5730;SDS011;2890;51.950;7.668;2023-02-15T11:39:51;22.00;;;16.95;;
5730;SDS011;2890;51.950;7.668;2023-02-15T11:42:20;23.92;;;16.67;;
5730;SDS011;2890;51.950;7.668;2023-02-15T11:44:50;20.67;;;16.35;;
5730;SDS011;2890;51.950;7.668;2023-02-15T11:47:22;24.63;;;17.30;;
5730;SDS011;2890;51.950;7.668;2023-02-15T11:49:49;23.63;;;17.35;;
5730;SDS011;2890;51.950;7.668;2023-02-15T11:52:15;23.45;;;17.23;;
5730;SDS011;2890;51.950;7.668;2023-02-15T11:54:44;22.83;;;17.45;;
5730;SDS011;2890;51.950;7.668;2023-02-15T11:57:14;26.30;;;17.63;;
5730;SDS011;2890;51.950;7.668;2023-02-15T11:59:43;30.40;;;19.55;;
5730;SDS011;2890;51.950;7.668;2023-02-15T12:02:15;23.90;;;17.60;;
5730;SDS011;2890;51.950;7.668;2023-02-15T12:04:43;23.17;;;16.88;;
5730;SDS011;2890;51.950;7.668;2023-02-15T12:07:15;25.13;;;17.33;;
5730;SDS011;2890;51.950;7.668;2023-02-15T12:09:46;26.52;;;17.63;;
5730;SDS011;2890;51.950;7.668;2023-02-15T12:12:22;25.75;;;16.55;;
5730;SDS011;2890;51.950;7.668;2023-02-15T12:14:51;28.33;;;18.05;;
5730;SDS011;2890;51.950;7.668;2023-02-15T12:17:20;25.05;;;17.02;;
5730;SDS011;2890;51.950;7.668;2023-02-15T12:19:47;21.38;;;16.20;;
5730;SDS011;2890;51.950;7.668;2023-02-15T12:22:20;23.35;;;16.55;;
5730;SDS011;2890;51.950;7.668;2023-02-15T12:24:49;26.30;;;18.30;;
5730;SDS011;2890;51.950;7.668;2023-02-15T12:27:17;23.65;;;17.23;;
5730;SDS011;2890;51.950;7.668;2023-02-15T12:29:48;23.88;;;17.10;;
5730;SDS011;2890;51.950;7.668;2023-02-15T12:32:16;24.52;;;16.88;;
5730;SDS011;2890;51.950;7.668;2023-02-15T12:34:44;25.40;;;17.20;;
5730;SDS011;2890;51.950;7.668;2023-02-15T12:37:15;22.83;;;17.23;;
5730;SDS011;2890;51.950;7.668;2023-02-15T12:39:53;26.85;;;18.17;;
5730;SDS011;2890;51.950;7.668;2023-02-15T12:42:21;26.23;;;18.38;;
5730;SDS011;2890;51.950;7.668;2023-02-15T12:44:57;26.50;;;17.15;;
5730;SDS011;2890;51.950;7.668;2023-02-15T15:35:55;24.87;;;;;
5730;SDS011;2890;51.950;7.668;2023-02-15T15:38:38;17.23;;;11.82;;
5730;SDS011;2890;51.950;7.668;2023-02-15T15:41:17;22.50;;;15.07;;
5730;SDS011;2890;51.950;7.668;2023-02-15T15:43:56;20.55;;;13.15;;
5730;SDS011;2890;51.950;7.668;2023-02-15T15:46:47;21.73;;;14.27;;
5730;SDS011;2890;51.950;7.668;2023-02-15T15:49:21;22.20;;;13.80;;
5730;SDS011;2890;51.950;7.668;2023-02-15T15:51:51;24.48;;;13.13;;
5730;SDS011;2890;51.950;7.668;2023-02-15T15:54:19;25.88;;;15.00;;
5730;SDS011;2890;51.950;7.668;2023-02-15T15:56:48;20.63;;;13.13;;
5730;SDS011;2890;51.950;7.668;2023-02-15T15:59:17;20.63;;;13.45;;
5730;SDS011;2890;51.950;7.668;2023-02-15T16:01:46;22.67;;;13.23;;
5730;SDS011;2890;51.950;7.668;2023-02-15T16:04:13;21.33;;;12.27;;
5730;SDS011;2890;51.950;7.668;2023-02-15T16:06:49;25.38;;;11.82;;
5730;SDS011;2890;51.950;7.668;2023-02-15T16:09:17;19.43;;;12.83;;
5730;SDS011;2890;51.950;7.668;2023-02-15T16:11:46;18.80;;;11.32;;
5730;SDS011;2890;51.950;7.668;2023-02-15T16:14:14;19.23;;;12.60;;
5730;SDS011;2890;51.950;7.668;2023-02-15T16:16:46;23.40;;;12.37;;
5730;SDS011;2890;51.950;7.668;2023-02-15T16:19:23;20.03;;;12.40;;
5730;SDS011;2890;51.950;7.668;2023-02-15T16:21:52;24.60;;;14.48;;
5730;SDS011;2890;51.950;7.668;2023-02-15T16:24:32;24.87;;;13.90;;
5730;SDS011;2890;51.950;7.668;2023-02-15T16:27:16;27.00;;;13.87;;
5730;SDS011;2890;51.950;7.668;2023-02-15T16:29:48;22.07;;;13.30;;
5730;SDS011;2890;51.950;7.668;2023-02-15T16:32:18;21.77;;;12.67;;
5730;SDS011;2890;51.950;7.668;2023-02-15T16:34:53;24.92;;;14.25;;
5730;SDS011;2890;51.950;7.668;2023-02-15T16:37:21;26.58;;;15.05;;
5730;SDS011;2890;51.950;7.668;2023-02-15T16:39:52;26.60;;;14.97;;
5730;SDS011;2890;51.950;7.668;2023-02-15T16:42:19;26.87;;;14.03;;
5730;SDS011;2890;51.950;7.668;2023-02-15T16:44:47;23.67;;;15.37;;
5730;SDS011;2890;51.950;7.668;2023-02-15T16:47:16;26.13;;;15.60;;
5730;SDS011;2890;51.950;7.668;2023-02-15T16:49:45;26.70;;;15.17;;
5730;SDS011;2890;51.950;7.668;2023-02-15T16:52:14;29.60;;;16.50;;
5730;SDS011;2890;51.950;7.668;2023-02-15T16:54:41;23.65;;;16.25;;
5730;SDS011;2890;51.950;7.668;2023-02-15T16:57:15;25.83;;;17.17;;
5730;SDS011;2890;51.950;7.668;2023-02-15T16:59:45;66.97;;;30.90;;
5730;SDS011;2890;51.950;7.668;2023-02-15T17:02:13;37.40;;;20.77;;
5730;SDS011;2890;51.950;7.668;2023-02-15T17:04:42;28.90;;;17.43;;
5730;SDS011;2890;51.950;7.668;2023-02-15T17:07:14;30.73;;;17.23;;
5730;SDS011;2890;51.950;7.668;2023-02-15T17:09:48;29.03;;;17.40;;
5730;SDS011;2890;51.950;7.668;2023-02-15T17:15:24;23.47;;;16.00;;
5730;SDS011;2890;51.950;7.668;2023-02-15T17:17:51;29.10;;;16.87;;
5730;SDS011;2890;51.950;7.668;2023-02-15T17:20:18;25.73;;;17.03;;
5730;SDS011;2890;51.950;7.668;2023-02-15T17:22:45;25.90;;;16.50;;
5730;SDS011;2890;51.950;7.668;2023-02-15T17:25:18;24.93;;;16.97;;
5730;SDS011;2890;51.950;7.668;2023-02-15T17:27:51;31.60;;;17.67;;
5730;SDS011;2890;51.950;7.668;2023-02-15T17:30:20;29.60;;;17.87;;
5730;SDS011;2890;51.950;7.668;2023-02-15T17:32:53;27.60;;;18.50;;
5730;SDS011;2890;51.950;7.668;2023-02-15T17:35:22;30.83;;;19.17;;
5730;SDS011;2890;51.950;7.668;2023-02-15T17:37:50;28.63;;;17.87;;
5730;SDS011;2890;51.950;7.668;2023-02-15T17:40:27;29.60;;;18.40;;
5730;SDS011;2890;51.950;7.668;2023-02-15T17:42:56;28.87;;;18.23;;
5730;SDS011;2890;51.950;7.668;2023-02-15T17:45:24;30.67;;;18.07;;
5730;SDS011;2890;51.950;7.668;2023-02-15T17:47:51;25.97;;;17.93;;
5730;SDS011;2890;51.950;7.668;2023-02-15T17:50:19;29.50;;;18.97;;
5730;SDS011;2890;51.950;7.668;2023-02-15T17:52:47;47.30;;;25.43;;
5730;SDS011;2890;51.950;7.668;2023-02-15T17:55:14;122.63;;;51.50;;
5730;SDS011;2890;51.950;7.668;2023-02-15T17:58:05;36.27;;;21.40;;
5730;SDS011;2890;51.950;7.668;2023-02-15T18:00:34;33.90;;;19.50;;